NCAR-RAP Real-Time Weather Data

Output produced by METARs form (24 January 2022  22:30 UTC)
found at http://weather.rap.ucar.edu/surface/
 
KORF 242151Z AUTO 13006KT 10SM CLR 04/M01 A2990 RMK AO2 SLP123 T00441011 TSNO
KORF 242051Z AUTO 12008KT 10SM CLR 05/M01 A2989 RMK AO2 SLP120 T00501011 56011 TSNO
KORF 241951Z AUTO 04008KT 10SM CLR 04/00 A2989 RMK AO2 SLP120 T00390000 TSNO
KORF 241851Z AUTO 05005KT 10SM CLR 04/M01 A2990 RMK AO2 SLP125 T00441006 TSNO
KORF 241751Z AUTO 03007KT 10SM CLR 04/M02 A2992 RMK AO2 SLP131 T00391017 10039 21033 58012 TSNO
KORF 241651Z AUTO 04006KT 10SM CLR 04/M02 A2994 RMK AO2 SLP139 T00391022 TSNO
KORF 241551Z 04005KT 10SM CLR 03/M02 A2996 RMK AO2 SLP144 T00331022
KORF 241451Z 36007KT 10SM CLR 03/M01 A2995 RMK AO2 SLP143 T00331011 53013
KORF 241351Z 00000KT 10SM CLR 01/M02 A2993 RMK AO2 SLP133 T00061017
KORF 241251Z 00000KT 10SM CLR M02/M04 A2994 RMK AO2 SLP136 T10221039